No particular awareness of the weather is required.    There are no Weather-warnings


Meteo18 Weather Cam more information Meteo18 Weather Cam


Thunder radar more information blitzortung!


Rain radar more information rain snow radar


Visit our other weather sites:

Template documentation
and downloads

And another site



Weather Underground History page Text

Daily Summary for March 10, 2018 Units:  Metric    English   Both
« Previous Day
Next Day »
Daily Weekly Monthly Yearly Custom
  High: Low: Average:
Temperature: -17.8 °C -12.4 °C -10.5 °C
Dew Point: -17.8 °C -13.5 °C -12 °C
Humidity: Humidity % 63 % 84 %
Wind Speed: 0 km/h 0 km/h 6.4 km/h
Wind Gust: 0 km/h - -
Wind:- - South
Pressure: 0 hPa 33799.1 hPa -
Precipitation: 276.86 mm    
Historical Graphs
 
 
Tabular Data for March 10, 2018
Time Temperature Dew Point Pressure Wind Wind Speed Wind Gust Humidity Rainfall Rate (Hourly)
-17.8 °C -17.8 °C 0 hPa Calm     Humidity % 0 mm
00:04 -11 °C -13.4 °C 33992.1 hPa Calm   5.1 km/h 75 % 0 mm
00:10 -11 °C -13.4 °C 33992.1 hPa Calm     75 % 0 mm
00:16 -11 °C -13.4 °C 33992.1 hPa Calm     75 % 0 mm
00:22 -11 °C -13.4 °C 33992.1 hPa Calm   2.6 km/h 75 % 0 mm
00:28 -11 °C -13.5 °C 33992.1 hPa Calm     74 % 0 mm
00:34 -11 °C -13.5 °C 33992.1 hPa Calm   5.1 km/h 74 % 0 mm
00:40 -10.9 °C -13.4 °C 33992.1 hPa SE 2.3 km/h 10.3 km/h 74 % 0 mm
00:46 -10.9 °C -13.4 °C 33992.1 hPa Calm   2.6 km/h 74 % 0 mm
00:52 -10.9 °C -13.4 °C 33992.1 hPa SSE 7.6 km/h 7.7 km/h 74 % 0 mm
00:58 -11 °C -13.4 °C 33992.1 hPa SE 2.3 km/h 2.6 km/h 75 % 0 mm
01:04 -11 °C -13.4 °C 33981.9 hPa SE 2.3 km/h 5.1 km/h 75 % 0 mm
01:10 -11 °C -13.4 °C 33992.1 hPa SE 5.1 km/h 7.7 km/h 75 % 0 mm
01:16 -11 °C -13.5 °C 33981.9 hPa SE 2.3 km/h 5.1 km/h 74 % 0 mm
01:22 -11.1 °C -13.4 °C 33981.9 hPa SE 2.3 km/h 5.1 km/h 75 % 0 mm
01:28 -11.2 °C -13.4 °C 33981.9 hPa SE 5.1 km/h 12.9 km/h 76 % 0 mm
01:34 -11.2 °C -13.4 °C 33981.9 hPa SE 2.3 km/h 7.7 km/h 76 % 0 mm
01:40 -11.2 °C -13.4 °C 33981.9 hPa SSE 5.1 km/h 10.3 km/h 76 % 0 mm
01:46 -11.2 °C -13.4 °C 33981.9 hPa Calm   5.1 km/h 77 % 0 mm
01:52 -11.2 °C -13.4 °C 33981.9 hPa Calm   5.1 km/h 77 % 0 mm
01:58 -11.2 °C -13.4 °C 33981.9 hPa Calm   5.1 km/h 77 % 0 mm
02:04 -11.2 °C -13.4 °C 33981.9 hPa Calm   5.1 km/h 77 % 0 mm
02:10 -11.2 °C -13.4 °C 33981.9 hPa Calm   2.6 km/h 77 % 0 mm
02:16 -11.2 °C -13.4 °C 33981.9 hPa Calm   7.7 km/h 77 % 0 mm
02:22 -11.2 °C -13.3 °C 33981.9 hPa South 5.1 km/h 10.3 km/h 78 % 0 mm
02:29 -11.2 °C -13.3 °C 33981.9 hPa SE 2.3 km/h 7.7 km/h 78 % 0 mm
02:35 -11.2 °C -13.3 °C 33981.9 hPa Calm   7.7 km/h 78 % 0 mm
02:41 -11.3 °C -13.3 °C 33971.7 hPa SSE 5.1 km/h 5.1 km/h 78 % 0 mm
02:47 -11.3 °C -13.3 °C 33971.7 hPa SSE 2.3 km/h 5.1 km/h 78 % 0 mm
02:53 -11.3 °C -13.2 °C 33971.7 hPa SSE 2.3 km/h 7.7 km/h 79 % 0 mm
02:59 -11.3 °C -13.3 °C 33971.7 hPa SSE 2.3 km/h 12.9 km/h 79 % 0 mm
03:05 -11.3 °C -13.3 °C 33971.7 hPa South 5.1 km/h 10.3 km/h 79 % 0 mm
03:11 -11.3 °C -13.2 °C 33971.7 hPa SSE 7.6 km/h 18.2 km/h 80 % 0 mm
03:17 -11.3 °C -13.2 °C 33971.7 hPa SSE 10.3 km/h 15.6 km/h 80 % 0 mm
03:23 -11.4 °C -13.1 °C 33971.7 hPa SSE 2.3 km/h 10.3 km/h 81 % 0 mm
03:29 -11.4 °C -13.1 °C 33958.2 hPa SSE 10.3 km/h 18.2 km/h 82 % 0 mm
03:35 -11.6 °C -13.1 °C 33958.2 hPa SSE 5.1 km/h 10.3 km/h 83 % 0 mm
03:41 -11.6 °C -13.1 °C 33958.2 hPa SSE 5.1 km/h 12.9 km/h 84 % 0 mm
03:47 -11.7 °C -13 °C 33958.2 hPa SSE 5.1 km/h 15.6 km/h 85 % 0 mm
03:53 -11.8 °C -12.9 °C 33958.2 hPa East 17.9 km/h 23.3 km/h 87 % 7.62 mm
03:59 -11.9 °C -12.9 °C 33958.2 hPa SSE 2.3 km/h 15.6 km/h 89 % 12.7 mm
04:05 -12.1 °C -12.9 °C 33958.2 hPa ESE 5.1 km/h 5.1 km/h 90 % 20.32 mm
04:11 -12.1 °C -12.9 °C 33958.2 hPa Calm   10.3 km/h 91 % 25.4 mm
04:17 -12.2 °C -12.8 °C 33958.2 hPa Calm   10.3 km/h 92 % 33.02 mm
04:23 -12.2 °C -12.8 °C 33948 hPa SSE 2.3 km/h 7.7 km/h 92 % 38.1 mm
04:29 -12.2 °C -12.8 °C 33948 hPa Calm   5.1 km/h 93 % 38.1 mm
04:35 -12.3 °C -12.9 °C 33948 hPa SE 2.3 km/h 7.7 km/h 93 % 38.1 mm
04:41 -12.3 °C -12.8 °C 33948 hPa SSE 7.6 km/h 15.6 km/h 94 % 45.72 mm
04:47 -12.3 °C -12.8 °C 33937.9 hPa SSE 2.3 km/h 10.3 km/h 94 % 45.72 mm
04:53 -12.3 °C -12.8 °C 33937.9 hPa SSE 5.1 km/h 7.7 km/h 94 % 38.1 mm
04:59 -12.3 °C -12.8 °C 33937.9 hPa SE 2.3 km/h 7.7 km/h 94 % 38.1 mm
05:05 -12.3 °C -12.7 °C 33924.3 hPa SE 5.1 km/h 10.3 km/h 95 % 33.02 mm
05:11 -12.3 °C -12.8 °C 33924.3 hPa SW 5.1 km/h 5.1 km/h 95 % 25.4 mm
05:17 -12.3 °C -12.7 °C 33924.3 hPa SSE 5.1 km/h 10.3 km/h 95 % 25.4 mm
05:23 -12.3 °C -12.7 °C 33924.3 hPa SW 7.6 km/h 7.7 km/h 95 % 20.32 mm
05:29 -12.3 °C -12.7 °C 33924.3 hPa Calm   12.9 km/h 95 % 25.4 mm
05:35 -12.3 °C -12.7 °C 33924.3 hPa SSE 2.3 km/h 12.9 km/h 95 % 25.4 mm
05:41 -12.3 °C -12.7 °C 33924.3 hPa SE 2.3 km/h 10.3 km/h 95 % 25.4 mm
05:47 -12.3 °C -12.7 °C 33924.3 hPa South 5.1 km/h 20.8 km/h 95 % 33.02 mm
05:53 -12.3 °C -12.7 °C 33924.3 hPa SSW 5.1 km/h 18.2 km/h 95 % 38.1 mm
05:59 -12.3 °C -12.7 °C 33924.3 hPa SSE 10.3 km/h 28.5 km/h 95 % 38.1 mm
06:05 -12.3 °C -12.7 °C 33924.3 hPa SSE 7.6 km/h 18.2 km/h 95 % 38.1 mm
06:11 -12.3 °C -12.7 °C 33914.2 hPa SE 5.1 km/h 20.8 km/h 95 % 38.1 mm
06:17 -12.3 °C -12.7 °C 33914.2 hPa SE 17.9 km/h 23.3 km/h 95 % 38.1 mm
06:23 -12.3 °C -12.7 °C 33914.2 hPa SSE 7.6 km/h 18.2 km/h 95 % 45.72 mm
06:29 -12.3 °C -12.7 °C 33914.2 hPa SSE 7.6 km/h 20.8 km/h 95 % 45.72 mm
06:35 -12.3 °C -12.8 °C 33914.2 hPa SE 10.3 km/h 18.2 km/h 95 % 45.72 mm
06:41 -12.3 °C -12.8 °C 33914.2 hPa SSE 5.1 km/h 15.6 km/h 95 % 45.72 mm
06:47 -12.3 °C -12.8 °C 33900.6 hPa SE 5.1 km/h 12.9 km/h 95 % 45.72 mm
06:53 -12.3 °C -12.8 °C 33900.6 hPa SE 7.6 km/h 15.6 km/h 95 % 45.72 mm
06:59 -12.3 °C -12.8 °C 33900.6 hPa SSW 23 km/h 23.3 km/h 95 % 45.72 mm
07:05 -12.3 °C -12.8 °C 33900.6 hPa SSE 7.6 km/h 18.2 km/h 95 % 45.72 mm
07:11 -12.3 °C -12.8 °C 33900.6 hPa SE 5.1 km/h 12.9 km/h 95 % 45.72 mm
07:17 -12.3 °C -12.8 °C 33900.6 hPa SSE 7.6 km/h 15.6 km/h 95 % 45.72 mm
07:23 -12.3 °C -12.8 °C 33900.6 hPa SSE 12.7 km/h 18.2 km/h 95 % 45.72 mm
07:29 -12.4 °C -12.8 °C 33900.6 hPa South 10.3 km/h 18.2 km/h 95 % 38.1 mm
07:35 -12.4 °C -12.8 °C 33900.6 hPa SE 12.7 km/h 18.2 km/h 95 % 38.1 mm
07:41 -12.4 °C -12.8 °C 33900.6 hPa East 5.1 km/h 10.3 km/h 95 % 38.1 mm
07:47 -12.4 °C -12.8 °C 33900.6 hPa SE 7.6 km/h 18.2 km/h 95 % 38.1 mm
07:53 -12.4 °C -12.8 °C 33900.6 hPa ESE 12.7 km/h 15.6 km/h 95 % 33.02 mm
07:59 -12.4 °C -12.8 °C 33900.6 hPa SE 2.3 km/h 18.2 km/h 95 % 38.1 mm
08:05 -12.4 °C -12.8 °C 33900.6 hPa SSE 2.3 km/h 12.9 km/h 95 % 38.1 mm
08:11 -12.4 °C -12.8 °C 33900.6 hPa SE 10.3 km/h 12.9 km/h 95 % 45.72 mm
08:17 -12.3 °C -12.8 °C 33900.6 hPa SE 7.6 km/h 12.9 km/h 95 % 45.72 mm
08:23 -12.3 °C -12.7 °C 33900.6 hPa South 10.3 km/h 18.2 km/h 96 % 50.8 mm
08:29 -12.3 °C -12.7 °C 33900.6 hPa SSE 5.1 km/h 10.3 km/h 96 % 58.42 mm
08:35 -12.4 °C -12.7 °C 33900.6 hPa South 10.3 km/h 12.9 km/h 96 % 50.8 mm
08:41 -12.3 °C -12.7 °C 33900.6 hPa SE 5.1 km/h 18.2 km/h 96 % 58.42 mm
08:47 -12.3 °C -12.7 °C 33900.6 hPa Calm   15.6 km/h 96 % 50.8 mm
08:53 -12.3 °C -12.7 °C 33900.6 hPa SE 5.1 km/h 12.9 km/h 96 % 50.8 mm
08:59 -12.3 °C -12.7 °C 33900.6 hPa SE 5.1 km/h 7.7 km/h 96 % 38.1 mm
09:05 -12.3 °C -12.7 °C 33900.6 hPa SE 5.1 km/h 10.3 km/h 96 % 33.02 mm
09:11 -12.3 °C -12.7 °C 33900.6 hPa ESE 2.3 km/h 7.7 km/h 96 % 25.4 mm
09:17 -12.3 °C -12.7 °C 33900.6 hPa ESE 5.1 km/h 12.9 km/h 96 % 25.4 mm
09:23 -12.3 °C -12.6 °C 33900.6 hPa SE 5.1 km/h 7.7 km/h 96 % 12.7 mm
09:29 -12.3 °C -12.6 °C 33900.6 hPa SE 15.6 km/h 18.2 km/h 96 % 12.7 mm
09:35 -12.2 °C -12.6 °C 33900.6 hPa SE 7.6 km/h 10.3 km/h 96 % 12.7 mm
09:41 -12.2 °C -12.5 °C 33900.6 hPa Calm   2.6 km/h 96 % 7.62 mm
09:47 -12.1 °C -12.4 °C 33900.6 hPa SE 5.1 km/h 10.3 km/h 96 % 7.62 mm
09:53 -12.1 °C -12.4 °C 33900.6 hPa ESE 2.3 km/h 10.3 km/h 96 % 7.62 mm
09:59 -12.1 °C -12.4 °C 33914.2 hPa Calm   2.6 km/h 96 % 7.62 mm
10:05 -12.1 °C -12.5 °C 33914.2 hPa Calm   7.7 km/h 95 % 7.62 mm
10:11 -11.9 °C -12.4 °C 33914.2 hPa SE 2.3 km/h 10.3 km/h 95 % 7.62 mm
10:17 -11.8 °C -12.3 °C 33900.6 hPa ESE 5.1 km/h 10.3 km/h 95 % 0 mm
10:23 -11.7 °C -12.2 °C 33900.6 hPa SSE 2.3 km/h 20.8 km/h 94 % 0 mm
10:29 -11.5 °C -11.9 °C 33900.6 hPa Calm   7.7 km/h 95 % 0 mm
10:35 -11.2 °C -11.7 °C 33914.2 hPa SSW 5.1 km/h 5.1 km/h 94 % 0 mm
10:41 -11.1 °C -11.8 °C 33914.2 hPa SSW 12.7 km/h 15.6 km/h 92 % 0 mm
10:47 -10.9 °C -11.6 °C 33914.2 hPa South 5.1 km/h 12.9 km/h 92 % 0 mm
10:53 -10.9 °C -11.8 °C 33914.2 hPa SE 5.1 km/h 18.2 km/h 90 % 0 mm
11:00 -10.9 °C -11.8 °C 33914.2 hPa SSE 2.3 km/h 12.9 km/h 90 % 0 mm
11:06 -10.9 °C -11.8 °C 33914.2 hPa SSE 5.1 km/h 15.6 km/h 90 % 0 mm
11:12 -10.9 °C -11.8 °C 33914.2 hPa SSW 5.1 km/h 20.8 km/h 90 % 0 mm
11:18 -10.8 °C -11.7 °C 33914.2 hPa SSE 2.3 km/h 15.6 km/h 90 % 0 mm
11:24 -10.7 °C -11.6 °C 33914.2 hPa SE 12.7 km/h 12.9 km/h 90 % 0 mm
11:30 -10.6 °C -11.4 °C 33914.2 hPa SSE 10.3 km/h 12.9 km/h 90 % 0 mm
11:36 -10.4 °C -11.4 °C 33914.2 hPa SE 10.3 km/h 18.2 km/h 89 % 0 mm
11:42 -10.2 °C -11.3 °C 33914.2 hPa SSE 7.6 km/h 15.6 km/h 88 % 0 mm
11:48 -10.2 °C -11.3 °C 33914.2 hPa SE 5.1 km/h 18.2 km/h 87 % 0 mm
11:54 -9.9 °C -11.1 °C 33914.2 hPa SSE 7.6 km/h 15.6 km/h 87 % 0 mm
12:00 -9.8 °C -11.1 °C 33914.2 hPa SSE 5.1 km/h 18.2 km/h 86 % 0 mm
12:06 -9.6 °C -11.1 °C 33914.2 hPa SSE 7.6 km/h 23.3 km/h 84 % 0 mm
12:12 -9.4 °C -11.1 °C 33914.2 hPa South 10.3 km/h 20.8 km/h 83 % 0 mm
12:18 -9.3 °C -10.9 °C 33914.2 hPa SE 12.7 km/h 20.8 km/h 83 % 0 mm
12:24 -9.1 °C -10.8 °C 33900.6 hPa SSE 7.6 km/h 15.6 km/h 82 % 0 mm
12:30 -8.9 °C -10.8 °C 33900.6 hPa SE 7.6 km/h 20.8 km/h 81 % 0 mm
12:36 -8.7 °C -10.6 °C 33900.6 hPa SSE 12.7 km/h 18.2 km/h 80 % 0 mm
12:42 -8.4 °C -10.5 °C 33900.6 hPa SSW 20.9 km/h 25.9 km/h 79 % 0 mm
12:48 -8.3 °C -10.4 °C 33900.6 hPa SW 7.6 km/h 20.8 km/h 78 % 0 mm
12:54 -8.3 °C -10.6 °C 33900.6 hPa South 23 km/h 25.9 km/h 77 % 0 mm
13:00 -8.3 °C -10.8 °C 33900.6 hPa SSW 20.9 km/h 28.5 km/h 75 % 0 mm
13:06 -8.2 °C -10.6 °C 33900.6 hPa SSW 12.7 km/h 23.3 km/h 76 % 0 mm
13:12 -8.2 °C -10.6 °C 33900.6 hPa SSW 23 km/h 28.5 km/h 76 % 0 mm
13:18 -8.2 °C -10.7 °C 33900.6 hPa SSE 12.7 km/h 28.5 km/h 75 % 0 mm
13:24 -8.1 °C -10.6 °C 33900.6 hPa SW 23 km/h 23.3 km/h 75 % 0 mm
13:30 -7.9 °C -11 °C 33890.5 hPa SW 41.7 km/h 41.7 km/h 70 % 0 mm
13:36 -7.8 °C -11.7 °C 33890.5 hPa SW 36.5 km/h 44.1 km/h 64 % 0 mm
13:42 -7.7 °C -11.4 °C 33890.5 hPa SW 20.9 km/h 38.8 km/h 65 % 0 mm
13:48 -7.7 °C -11.4 °C 33890.5 hPa SW 23 km/h 41.4 km/h 65 % 0 mm
13:54 -7.7 °C -11.4 °C 33890.5 hPa WSW 20.9 km/h 20.9 km/h 65 % 0 mm
14:00 -7.7 °C -11.4 °C 33890.5 hPa West 15.6 km/h 23.3 km/h 65 % 0 mm
14:06 -7.6 °C -11.3 °C 33890.5 hPa SW 17.9 km/h 25.9 km/h 65 % 0 mm
14:12 -7.6 °C -11.2 °C 33880.3 hPa SW 23 km/h 28.5 km/h 66 % 0 mm
14:18 -7.6 °C -11.3 °C 33880.3 hPa SW 17.9 km/h 25.9 km/h 65 % 0 mm
14:24 -7.6 °C -11.3 °C 33880.3 hPa WSW 12.7 km/h 23.3 km/h 65 % 0 mm
14:30 -7.6 °C -11.6 °C 33880.3 hPa SW 20.9 km/h 33.6 km/h 63 % 0 mm
14:36 -7.6 °C -11.6 °C 33880.3 hPa SW 17.9 km/h 28.5 km/h 63 % 0 mm
14:42 -7.7 °C -11.5 °C 33880.3 hPa SW 17.9 km/h 23.3 km/h 64 % 0 mm
14:48 -7.7 °C -11.5 °C 33890.5 hPa West 17.9 km/h 31.1 km/h 64 % 0 mm
14:54 -7.7 °C -11.6 °C 33890.5 hPa West 12.7 km/h 25.9 km/h 64 % 0 mm
15:00 -7.9 °C -11.4 °C 33890.5 hPa West 12.7 km/h 20.8 km/h 66 % 0 mm
15:06 -8 °C -11.3 °C 33890.5 hPa WSW 10.3 km/h 10.3 km/h 68 % 0 mm
15:12 -8.1 °C -11.5 °C 33890.5 hPa SW 2.3 km/h 12.9 km/h 67 % 0 mm
15:18 -8.1 °C -11.4 °C 33890.5 hPa WSW 2.3 km/h 7.7 km/h 68 % 0 mm
15:24 -8.1 °C -11.4 °C 33890.5 hPa SW 5.1 km/h 10.3 km/h 68 % 0 mm
15:30 -8.1 °C -11.3 °C 33890.5 hPa WSW 7.6 km/h 7.7 km/h 69 % 0 mm
15:36 -8.1 °C -11.4 °C 33890.5 hPa SSW 5.1 km/h 7.7 km/h 68 % 0 mm
15:42 -8.2 °C -11.3 °C 33880.3 hPa SW 5.1 km/h 5.1 km/h 69 % 0 mm
15:48 -8.2 °C -11.2 °C 33880.3 hPa SW 2.3 km/h 7.7 km/h 70 % 0 mm
15:54 -8.2 °C -11.2 °C 33890.5 hPa SSW 5.1 km/h 5.1 km/h 70 % 0 mm
16:00 -8.1 °C -11.2 °C 33880.3 hPa SW 2.3 km/h 7.7 km/h 70 % 0 mm
16:06 -7.9 °C -10.9 °C 33880.3 hPa South 5.1 km/h 10.3 km/h 70 % 0 mm
16:12 -7.8 °C -10.9 °C 33880.3 hPa SW 2.3 km/h 7.7 km/h 70 % 0 mm
16:18 -7.7 °C -10.8 °C 33880.3 hPa SSW 5.1 km/h 7.7 km/h 70 % 0 mm
16:24 -7.7 °C -10.6 °C 33880.3 hPa Calm   2.6 km/h 71 % 0 mm
16:31 -7.7 °C -10.8 °C 33880.3 hPa SSW 5.1 km/h 7.7 km/h 70 % 0 mm
16:37 -7.8 °C -10.7 °C 33880.3 hPa WSW 5.1 km/h 7.7 km/h 71 % 0 mm
16:43 -7.8 °C -10.9 °C 33880.3 hPa SSW 2.3 km/h 5.1 km/h 70 % 0 mm
16:49 -7.9 °C -10.9 °C 33880.3 hPa SW 7.6 km/h 10.3 km/h 70 % 0 mm
16:55 -7.9 °C -10.9 °C 33880.3 hPa SSW 2.3 km/h 7.7 km/h 71 % 0 mm
17:01 -8 °C -10.6 °C 33880.3 hPa SW 7.6 km/h 7.7 km/h 74 % 0 mm
17:07 -8.2 °C -10.7 °C 33880.3 hPa SW 2.3 km/h 7.7 km/h 75 % 0 mm
17:13 -8.2 °C -10.8 °C 33880.3 hPa SW 5.1 km/h 7.7 km/h 74 % 0 mm
17:19 -8.3 °C -10.8 °C 33880.3 hPa SW 5.1 km/h 7.7 km/h 75 % 0 mm
17:25 -8.4 °C -10.7 °C 33880.3 hPa SSW 5.1 km/h 10.3 km/h 77 % 0 mm
17:31 -8.5 °C -10.8 °C 33880.3 hPa SW 12.7 km/h 12.9 km/h 77 % 0 mm
17:37 -8.6 °C -10.8 °C 33880.3 hPa SSW 12.7 km/h 15.6 km/h 77 % 0 mm
17:43 -8.7 °C -10.9 °C 33880.3 hPa SW 12.7 km/h 15.6 km/h 77 % 0 mm
17:49 -8.8 °C -10.9 °C 33880.3 hPa SW 5.1 km/h 12.9 km/h 78 % 0 mm
17:55 -8.7 °C -11.1 °C 33880.3 hPa SW 15.6 km/h 15.6 km/h 76 % 0 mm
18:01 -8.7 °C -11.1 °C 33880.3 hPa SW 15.6 km/h 20.8 km/h 75 % 0 mm
18:07 -8.7 °C -10.9 °C 33880.3 hPa SW 12.7 km/h 15.6 km/h 77 % 0 mm
18:13 -8.9 °C -10.9 °C 33880.3 hPa SSW 7.6 km/h 10.3 km/h 79 % 0 mm
18:19 -9.1 °C -11.1 °C 33880.3 hPa SW 7.6 km/h 10.3 km/h 79 % 0 mm
18:25 -9.1 °C -11.1 °C 33880.3 hPa SSW 7.6 km/h 10.3 km/h 79 % 0 mm
18:31 -9.2 °C -11.1 °C 33880.3 hPa South 2.3 km/h 5.1 km/h 80 % 0 mm
18:37 -9.3 °C -11.1 °C 33880.3 hPa South 2.3 km/h 2.6 km/h 81 % 0 mm
18:43 -9.5 °C -11.2 °C 33880.3 hPa SSW 2.3 km/h 5.1 km/h 82 % 0 mm
18:49 -9.6 °C -11.2 °C 33880.3 hPa SSW 2.3 km/h 5.1 km/h 83 % 7.62 mm
18:55 -9.7 °C -11.1 °C 33890.5 hPa Calm   2.6 km/h 85 % 7.62 mm
19:01 -9.8 °C -11.1 °C 33890.5 hPa SSW 5.1 km/h 5.1 km/h 86 % 12.7 mm
19:07 -9.9 °C -11.2 °C 33890.5 hPa SSW 7.6 km/h 7.7 km/h 86 % 12.7 mm
19:13 -9.9 °C -11.1 °C 33890.5 hPa SW 10.3 km/h 10.3 km/h 87 % 12.7 mm
19:19 -10.1 °C -11.2 °C 33890.5 hPa SW 10.3 km/h 12.9 km/h 87 % 12.7 mm
19:25 -10.1 °C -11.2 °C 33890.5 hPa SW 7.6 km/h 10.3 km/h 88 % 12.7 mm
19:31 -10.1 °C -11.2 °C 33890.5 hPa SW 7.6 km/h 10.3 km/h 88 % 12.7 mm
19:37 -10.1 °C -11.2 °C 33890.5 hPa SSW 2.3 km/h 10.3 km/h 88 % 12.7 mm
19:43 -10.2 °C -11.2 °C 33880.3 hPa South 2.3 km/h 10.3 km/h 89 % 12.7 mm
19:55 -10.3 °C -11.3 °C 33880.3 hPa SSW 2.3 km/h 2.6 km/h 89 % 12.7 mm
20:01 -10.3 °C -11.2 °C 33880.3 hPa SW 2.3 km/h 2.6 km/h 90 % 7.62 mm
20:07 -10.4 °C -11.3 °C 33880.3 hPa Calm   2.6 km/h 90 % 7.62 mm
20:13 -10.3 °C -11.2 °C 33880.3 hPa SSW 2.3 km/h 5.1 km/h 90 % 7.62 mm
20:19 -10.4 °C -11.3 °C 33866.8 hPa SSW 2.3 km/h 2.6 km/h 90 % 7.62 mm
20:25 -10.4 °C -11.3 °C 33866.8 hPa SW 2.3 km/h 2.6 km/h 90 % 0 mm
20:31 -10.4 °C -11.3 °C 33866.8 hPa Calm   2.6 km/h 90 % 0 mm
20:37 -10.3 °C -11.2 °C 33866.8 hPa SW 2.3 km/h 5.1 km/h 90 % 0 mm
20:43 -10.4 °C -11.3 °C 33856.6 hPa Calm   2.6 km/h 90 % 7.62 mm
20:49 -10.4 °C -11.3 °C 33856.6 hPa Calm   2.6 km/h 90 % 7.62 mm
20:55 -10.5 °C -11.4 °C 33856.6 hPa Calm   2.6 km/h 90 % 7.62 mm
21:02 -10.5 °C -11.4 °C 33843.1 hPa Calm     90 % 7.62 mm
21:08 -10.4 °C -11.3 °C 33843.1 hPa Calm   2.6 km/h 90 % 7.62 mm
21:14 -10.4 °C -11.3 °C 33832.9 hPa Calm   2.6 km/h 90 % 7.62 mm
21:20 -10.5 °C -11.4 °C 33843.1 hPa ENE 2.3 km/h 2.6 km/h 90 % 7.62 mm
21:26 -10.6 °C -11.4 °C 33843.1 hPa SE 2.3 km/h 7.7 km/h 90 % 7.62 mm
21:32 -10.6 °C -11.4 °C 33856.6 hPa SSE 10.3 km/h 12.9 km/h 91 % 7.62 mm
21:38 -10.5 °C -11.3 °C 33866.8 hPa SE 12.7 km/h 20.8 km/h 91 % 12.7 mm
21:44 -10.4 °C -11.2 °C 33856.6 hPa SE 7.6 km/h 20.8 km/h 91 % 12.7 mm
21:50 -10.4 °C -11.2 °C 33856.6 hPa SE 20.9 km/h 28.5 km/h 91 % 20.32 mm
21:56 -10.5 °C -11.3 °C 33856.6 hPa SE 5.1 km/h 23.3 km/h 91 % 33.02 mm
22:02 -10.5 °C -11.2 °C 33856.6 hPa SE 5.1 km/h 18.2 km/h 92 % 33.02 mm
22:08 -10.6 °C -11.3 °C 33856.6 hPa Calm   10.3 km/h 92 % 33.02 mm
22:14 -10.6 °C -11.3 °C 33843.1 hPa SE 2.3 km/h 7.7 km/h 92 % 33.02 mm
22:20 -10.7 °C -11.3 °C 33843.1 hPa ESE 5.1 km/h 7.7 km/h 93 % 38.1 mm
22:26 -10.7 °C -11.3 °C 33843.1 hPa Calm   2.6 km/h 93 % 38.1 mm
22:32 -10.7 °C -11.3 °C 33832.9 hPa Calm     93 % 38.1 mm
22:38 -10.7 °C -11.3 °C 33832.9 hPa WSW 2.3 km/h 2.6 km/h 93 % 33.02 mm
22:44 -10.7 °C -11.2 °C 33832.9 hPa Calm     94 % 25.4 mm
22:50 -10.8 °C -11.3 °C 33832.9 hPa East 5.1 km/h 7.7 km/h 94 % 12.7 mm
22:56 -10.8 °C -11.3 °C 33822.8 hPa Calm   2.6 km/h 94 % 12.7 mm
23:02 -10.8 °C -11.3 °C 33822.8 hPa Calm     94 % 12.7 mm
23:08 -10.8 °C -11.3 °C 33822.8 hPa Calm     94 % 12.7 mm
23:14 -10.9 °C -11.4 °C 33822.8 hPa ENE 2.3 km/h 2.6 km/h 94 % 12.7 mm
23:20 -10.9 °C -11.4 °C 33809.2 hPa North 2.3 km/h 2.6 km/h 94 % 7.62 mm
23:26 -11 °C -11.5 °C 33809.2 hPa WNW 2.3 km/h 2.6 km/h 94 % 7.62 mm
23:32 -11 °C -11.4 °C 33809.2 hPa NW 2.3 km/h 5.1 km/h 95 % 0 mm
23:38 -10.9 °C -11.4 °C 33809.2 hPa NNE 5.1 km/h 5.1 km/h 95 % 0 mm
23:44 -10.9 °C -11.4 °C 33799.1 hPa North 2.3 km/h 5.1 km/h 95 % 0 mm
23:50 -11 °C -11.4 °C 33799.1 hPa Calm     95 % 0 mm
23:56 -11.1 °C -11.5 °C 33799.1 hPa NNW 2.3 km/h 2.6 km/h 95 % 0 mm
Meteo18
Compliments of Weather Underground - 4 mb

Script developed by  Jim McMurry - jmcmurry@mwt.net Adapted for the template by  Wim van der Kuil - Leuven-Template.eu

You find our weather info also at:

European Weather Network

Weather Underground

Equipment we use:

Weather-station
Davis Vue

Weather-program
Meteobridge

Weather-server
Raspberry PI 2 B+

Provider
1 and 1

Davis Vue

Meteobridge

Raspberry PI 2 B+

1 and 1